sensor_id;sensor_type;location;lat;lon;timestamp;pressure;altitude;pressure_sealevel;temperature;humidity
59877;BME280;45749;51.140;17.184;2023-05-25T00:01:48;100725.94;;;11.53;86.44
59877;BME280;45749;51.140;17.184;2023-05-25T00:04:14;100722.47;;;11.52;86.68
59877;BME280;45749;51.140;17.184;2023-05-25T00:06:41;100725.41;;;11.47;86.71
59877;BME280;45749;51.140;17.184;2023-05-25T00:09:06;100725.41;;;11.47;nan
59877;BME280;45749;51.140;17.184;2023-05-25T00:11:32;100725.53;;;11.46;86.83
59877;BME280;45749;51.140;17.184;2023-05-25T00:13:57;100728.25;;;11.44;86.85
59877;BME280;45749;51.140;17.184;2023-05-25T00:16:22;100725.00;;;11.41;86.96
59877;BME280;45749;51.140;17.184;2023-05-25T00:18:48;100726.91;;;11.39;87.01
59877;BME280;45749;51.140;17.184;2023-05-25T00:21:14;100718.25;;;11.37;87.09
59877;BME280;45749;51.140;17.184;2023-05-25T00:23:41;100720.13;;;11.35;87.10
59877;BME280;45749;51.140;17.184;2023-05-25T00:26:06;100716.78;;;11.33;86.94
59877;BME280;45749;51.140;17.184;2023-05-25T00:28:31;100708.22;;;11.29;86.68
59877;BME280;45749;51.140;17.184;2023-05-25T00:30:57;100718.38;;;11.22;86.64
59877;BME280;45749;51.140;17.184;2023-05-25T00:33:23;100710.66;;;11.19;86.37
59877;BME280;45749;51.140;17.184;2023-05-25T00:35:48;100715.59;;;11.11;86.36
59877;BME280;45749;51.140;17.184;2023-05-25T00:38:15;100724.91;;;11.04;86.37
59877;BME280;45749;51.140;17.184;2023-05-25T00:40:41;100723.41;;;11.00;86.58
59877;BME280;45749;51.140;17.184;2023-05-25T00:43:10;100728.91;;;10.97;87.13
59877;BME280;45749;51.140;17.184;2023-05-25T00:45:36;100725.50;;;10.95;86.88
59877;BME280;45749;51.140;17.184;2023-05-25T00:48:03;100734.41;;;10.94;86.95
59877;BME280;45749;51.140;17.184;2023-05-25T00:50:42;100733.00;;;10.88;87.11
59877;BME280;45749;51.140;17.184;2023-05-25T00:53:11;100732.16;;;10.88;87.20
59877;BME280;45749;51.140;17.184;2023-05-25T00:55:43;100729.00;;;10.83;87.27
59877;BME280;45749;51.140;17.184;2023-05-25T00:58:10;100734.38;;;10.81;87.10
59877;BME280;45749;51.140;17.184;2023-05-25T01:00:36;100732.97;;;10.75;87.24
59877;BME280;45749;51.140;17.184;2023-05-25T01:03:10;100722.94;;;10.68;87.13
59877;BME280;45749;51.140;17.184;2023-05-25T01:05:39;100728.00;;;10.71;87.14
59877;BME280;45749;51.140;17.184;2023-05-25T01:08:07;100722.09;;;10.67;87.50
59877;BME280;45749;51.140;17.184;2023-05-25T01:10:34;100728.00;;;10.71;87.56
59877;BME280;45749;51.140;17.184;2023-05-25T01:13:02;100728.84;;;10.71;87.69
59877;BME280;45749;51.140;17.184;2023-05-25T01:15:31;100734.13;;;10.71;87.77
59877;BME280;45749;51.140;17.184;2023-05-25T01:17:57;100728.00;;;10.71;87.82
59877;BME280;45749;51.140;17.184;2023-05-25T01:20:26;100737.31;;;10.76;88.06
59877;BME280;45749;51.140;17.184;2023-05-25T01:22:56;100732.97;;;10.75;88.03
59877;BME280;45749;51.140;17.184;2023-05-25T01:25:36;100736.56;;;10.74;88.02
59877;BME280;45749;51.140;17.184;2023-05-25T01:30:29;100741.66;;;10.77;88.18
59877;BME280;45749;51.140;17.184;2023-05-25T01:32:58;100734.97;;;10.72;87.95
59877;BME280;45749;51.140;17.184;2023-05-25T01:35:24;100748.94;;;10.74;88.23
59877;BME280;45749;51.140;17.184;2023-05-25T01:37:51;100755.16;;;10.73;88.16
59877;BME280;45749;51.140;17.184;2023-05-25T01:40:16;100757.13;;;10.69;88.07
59877;BME280;45749;51.140;17.184;2023-05-25T01:42:42;100762.41;;;10.69;88.20
59877;BME280;45749;51.140;17.184;2023-05-25T01:45:08;100757.25;;;10.68;88.19
59877;BME280;45749;51.140;17.184;2023-05-25T01:47:47;100749.72;;;10.62;88.40
59877;BME280;45749;51.140;17.184;2023-05-25T01:53:03;100742.56;;;10.64;88.41
59877;BME280;45749;51.140;17.184;2023-05-25T01:55:33;100747.09;;;10.62;88.59
59877;BME280;45749;51.140;17.184;2023-05-25T01:58:02;100734.94;;;10.59;88.58
59877;BME280;45749;51.140;17.184;2023-05-25T02:00:30;100740.03;;;10.62;88.74
59877;BME280;45749;51.140;17.184;2023-05-25T02:02:56;100737.59;;;10.59;88.87
59877;BME280;45749;51.140;17.184;2023-05-25T02:05:22;100739.19;;;10.62;89.08
59877;BME280;45749;51.140;17.184;2023-05-25T02:07:47;100754.16;;;10.61;89.20
59877;BME280;45749;51.140;17.184;2023-05-25T02:10:13;100747.28;;;10.59;89.19
59877;BME280;45749;51.140;17.184;2023-05-25T02:12:38;100758.69;;;10.59;89.46
59877;BME280;45749;51.140;17.184;2023-05-25T02:15:04;100754.16;;;10.61;89.27
59877;BME280;45749;51.140;17.184;2023-05-25T02:17:30;100759.44;;;10.61;89.22
59877;BME280;45749;51.140;17.184;2023-05-25T02:19:55;100762.19;;;10.60;89.21
59877;BME280;45749;51.140;17.184;2023-05-25T02:22:21;100765.75;;;10.59;89.68
59877;BME280;45749;51.140;17.184;2023-05-25T02:24:47;100762.19;;;10.60;89.98
59877;BME280;45749;51.140;17.184;2023-05-25T02:27:12;100757.31;;;10.53;89.97
59877;BME280;45749;51.140;17.184;2023-05-25T02:29:38;100769.16;;;10.61;89.96
59877;BME280;45749;51.140;17.184;2023-05-25T02:32:04;100773.28;;;10.65;89.88
59877;BME280;45749;51.140;17.184;2023-05-25T02:34:30;100757.66;;;10.62;90.07
59877;BME280;45749;51.140;17.184;2023-05-25T02:36:55;100758.69;;;10.59;90.25
59877;BME280;45749;51.140;17.184;2023-05-25T02:39:20;100769.16;;;10.61;90.22
59877;BME280;45749;51.140;17.184;2023-05-25T02:41:46;100762.09;;;10.61;90.00
59877;BME280;45749;51.140;17.184;2023-05-25T02:44:11;100761.97;;;10.63;90.20
59877;BME280;45749;51.140;17.184;2023-05-25T02:46:36;100761.97;;;10.63;90.02
59877;BME280;45749;51.140;17.184;2023-05-25T02:49:02;100762.09;;;10.61;90.40
59877;BME280;45749;51.140;17.184;2023-05-25T02:51:27;100757.78;;;10.60;90.73
59877;BME280;45749;51.140;17.184;2023-05-25T02:53:53;100759.44;;;10.61;91.00
59877;BME280;45749;51.140;17.184;2023-05-25T02:56:18;100762.19;;;10.60;90.87
59877;BME280;45749;51.140;17.184;2023-05-25T02:58:43;100750.56;;;10.62;90.78
59877;BME280;45749;51.140;17.184;2023-05-25T03:01:09;100740.97;;;10.61;90.71
59877;BME280;45749;51.140;17.184;2023-05-25T03:03:37;100750.56;;;10.62;90.92
59877;BME280;45749;51.140;17.184;2023-05-25T03:06:03;100750.50;;;10.64;91.01
59877;BME280;45749;51.140;17.184;2023-05-25T03:08:29;100747.00;;;10.63;91.04
59877;BME280;45749;51.140;17.184;2023-05-25T03:10:55;100757.25;;;10.68;91.29
59877;BME280;45749;51.140;17.184;2023-05-25T03:13:20;100760.22;;;10.63;91.40
59877;BME280;45749;51.140;17.184;2023-05-25T03:15:45;100759.75;;;10.56;91.38
59877;BME280;45749;51.140;17.184;2023-05-25T03:18:11;100755.84;;;10.62;91.48
59877;BME280;45749;51.140;17.184;2023-05-25T03:20:36;100760.41;;;10.60;91.75
59877;BME280;45749;51.140;17.184;2023-05-25T03:23:01;100765.03;;;10.56;91.46
59877;BME280;45749;51.140;17.184;2023-05-25T03:25:27;100771.16;;;10.57;91.61
59877;BME280;45749;51.140;17.184;2023-05-25T03:27:52;100769.03;;;10.62;91.72
59877;BME280;45749;51.140;17.184;2023-05-25T03:30:19;100765.28;;;10.66;91.56
59877;BME280;45749;51.140;17.184;2023-05-25T03:32:45;100764.22;;;10.69;91.48
59877;BME280;45749;51.140;17.184;2023-05-25T03:35:10;100759.56;;;10.72;91.96
59877;BME280;45749;51.140;17.184;2023-05-25T03:37:35;100749.53;;;10.65;91.59
59877;BME280;45749;51.140;17.184;2023-05-25T03:40:01;100768.25;;;10.74;91.87
59877;BME280;45749;51.140;17.184;2023-05-25T03:42:27;100767.22;;;10.77;91.84
59877;BME280;45749;51.140;17.184;2023-05-25T03:44:52;100775.97;;;10.77;91.82
59877;BME280;45749;51.140;17.184;2023-05-25T03:47:18;100775.13;;;10.77;92.02
59877;BME280;45749;51.140;17.184;2023-05-25T03:49:43;100778.06;;;10.72;91.83
59877;BME280;45749;51.140;17.184;2023-05-25T03:52:08;100781.00;;;10.68;91.75
59877;BME280;45749;51.140;17.184;2023-05-25T03:54:33;100770.75;;;10.63;92.04
59877;BME280;45749;51.140;17.184;2023-05-25T03:56:59;100773.94;;;10.68;91.80
59877;BME280;45749;51.140;17.184;2023-05-25T03:59:24;100785.25;;;10.70;91.99
59877;BME280;45749;51.140;17.184;2023-05-25T04:01:50;100776.38;;;10.71;91.89
59877;BME280;45749;51.140;17.184;2023-05-25T04:04:16;100783.25;;;10.74;91.95
59877;BME280;45749;51.140;17.184;2023-05-25T04:06:42;100782.09;;;10.78;91.73
59877;BME280;45749;51.140;17.184;2023-05-25T04:09:10;100790.66;;;10.82;91.93
59877;BME280;45749;51.140;17.184;2023-05-25T04:11:35;100794.13;;;10.82;91.83
59877;BME280;45749;51.140;17.184;2023-05-25T04:14:00;100780.94;;;10.82;91.80
59877;BME280;45749;51.140;17.184;2023-05-25T04:16:26;100789.50;;;10.86;91.79
59877;BME280;45749;51.140;17.184;2023-05-25T04:18:51;100790.44;;;10.85;91.68
59877;BME280;45749;51.140;17.184;2023-05-25T04:21:16;100799.22;;;10.85;91.72
59877;BME280;45749;51.140;17.184;2023-05-25T04:23:42;100806.09;;;10.88;91.85
59877;BME280;45749;51.140;17.184;2023-05-25T04:26:07;100798.16;;;10.88;92.08
59877;BME280;45749;51.140;17.184;2023-05-25T04:28:34;100795.63;;;10.86;92.33
59877;BME280;45749;51.140;17.184;2023-05-25T04:31:01;100796.38;;;10.88;92.35
59877;BME280;45749;51.140;17.184;2023-05-25T04:33:28;100796.28;;;10.90;92.69
59877;BME280;45749;51.140;17.184;2023-05-25T04:35:54;100798.81;;;10.91;92.59
59877;BME280;45749;51.140;17.184;2023-05-25T04:38:20;100789.50;;;10.86;92.69
59877;BME280;45749;51.140;17.184;2023-05-25T04:40:45;100801.25;;;10.94;92.75
59877;BME280;45749;51.140;17.184;2023-05-25T04:43:11;100797.75;;;10.94;92.65
59877;BME280;45749;51.140;17.184;2023-05-25T04:45:37;100801.16;;;10.96;92.83
59877;BME280;45749;51.140;17.184;2023-05-25T04:48:03;100807.81;;;11.01;92.83
59877;BME280;45749;51.140;17.184;2023-05-25T04:50:28;100805.28;;;11.00;93.27
59877;BME280;45749;51.140;17.184;2023-05-25T04:52:54;100806.22;;;10.99;92.98
59877;BME280;45749;51.140;17.184;2023-05-25T04:55:19;100805.28;;;11.00;93.01
59877;BME280;45749;51.140;17.184;2023-05-25T04:57:44;100811.28;;;11.02;93.12
59877;BME280;45749;51.140;17.184;2023-05-25T05:00:11;100807.06;;;10.99;93.02
59877;BME280;45749;51.140;17.184;2023-05-25T05:02:36;100810.34;;;11.03;93.14
59877;BME280;45749;51.140;17.184;2023-05-25T05:05:02;100811.50;;;10.99;93.36
59877;BME280;45749;51.140;17.184;2023-05-25T05:07:27;100807.06;;;10.99;93.26
59877;BME280;45749;51.140;17.184;2023-05-25T05:09:53;100816.47;;;11.03;93.02
59877;BME280;45749;51.140;17.184;2023-05-25T05:12:18;100820.50;;;11.09;93.16
59877;BME280;45749;51.140;17.184;2023-05-25T05:14:43;100816.72;;;11.13;92.99
59877;BME280;45749;51.140;17.184;2023-05-25T05:17:09;100820.06;;;11.15;92.97
59877;BME280;45749;51.140;17.184;2023-05-25T05:19:34;100819.78;;;11.20;92.73
59877;BME280;45749;51.140;17.184;2023-05-25T05:21:59;100830.44;;;11.18;92.40
59877;BME280;45749;51.140;17.184;2023-05-25T05:24:25;100826.88;;;11.19;92.75
59877;BME280;45749;51.140;17.184;2023-05-25T05:26:51;100832.88;;;11.21;92.40
59877;BME280;45749;51.140;17.184;2023-05-25T05:29:16;100835.63;;;11.20;92.57
59877;BME280;45749;51.140;17.184;2023-05-25T05:31:42;100835.44;;;11.23;92.68
59877;BME280;45749;51.140;17.184;2023-05-25T05:34:07;100831.31;;;11.19;92.67
59877;BME280;45749;51.140;17.184;2023-05-25T05:36:32;100836.47;;;11.20;92.85
59877;BME280;45749;51.140;17.184;2023-05-25T05:38:58;100840.28;;;11.16;92.79
59877;BME280;45749;51.140;17.184;2023-05-25T05:41:23;100833.41;;;11.14;92.85
59877;BME280;45749;51.140;17.184;2023-05-25T05:43:49;100847.25;;;11.17;92.75
59877;BME280;45749;51.140;17.184;2023-05-25T05:46:14;100845.44;;;11.18;92.79
59877;BME280;45749;51.140;17.184;2023-05-25T05:48:39;100839.31;;;11.17;92.99
59877;BME280;45749;51.140;17.184;2023-05-25T05:51:05;100841.88;;;11.19;92.90
59877;BME280;45749;51.140;17.184;2023-05-25T05:53:31;100841.88;;;11.19;93.33
59877;BME280;45749;51.140;17.184;2023-05-25T05:55:57;100836.34;;;11.22;93.33
59877;BME280;45749;51.140;17.184;2023-05-25T05:58:26;100846.72;;;11.25;93.20
59877;BME280;45749;51.140;17.184;2023-05-25T06:00:53;100843.88;;;11.28;93.22
59877;BME280;45749;51.140;17.184;2023-05-25T06:03:19;100847.28;;;11.30;93.18
59877;BME280;45749;51.140;17.184;2023-05-25T06:05:45;100855.84;;;11.34;93.35
59877;BME280;45749;51.140;17.184;2023-05-25T06:08:10;100856.69;;;11.34;93.30
59877;BME280;45749;51.140;17.184;2023-05-25T06:10:37;100848.75;;;11.34;93.40
59877;BME280;45749;51.140;17.184;2023-05-25T06:13:02;100853.63;;;11.40;93.45
59877;BME280;45749;51.140;17.184;2023-05-25T06:15:28;100858.91;;;11.40;93.38
59877;BME280;45749;51.140;17.184;2023-05-25T06:17:53;100858.50;;;11.46;93.32
59877;BME280;45749;51.140;17.184;2023-05-25T06:20:18;100863.38;;;11.53;93.61
59877;BME280;45749;51.140;17.184;2023-05-25T06:22:43;100859.56;;;11.57;93.49
59877;BME280;45749;51.140;17.184;2023-05-25T06:25:09;100853.22;;;11.59;93.08
59877;BME280;45749;51.140;17.184;2023-05-25T06:27:35;100859.25;;;11.61;93.15
59877;BME280;45749;51.140;17.184;2023-05-25T06:30:00;100860.84;;;11.64;93.29
59877;BME280;45749;51.140;17.184;2023-05-25T06:32:26;100857.25;;;11.65;93.11
59877;BME280;45749;51.140;17.184;2023-05-25T06:34:51;100857.97;;;11.67;93.11
59877;BME280;45749;51.140;17.184;2023-05-25T06:37:16;100859.03;;;11.64;93.12
59877;BME280;45749;51.140;17.184;2023-05-25T06:39:42;100849.84;;;11.70;93.61
59877;BME280;45749;51.140;17.184;2023-05-25T06:42:08;100850.59;;;11.72;93.45
59877;BME280;45749;51.140;17.184;2023-05-25T06:44:34;100843.59;;;11.71;93.63
59877;BME280;45749;51.140;17.184;2023-05-25T06:46:59;100856.81;;;11.84;93.55
59877;BME280;45749;51.140;17.184;2023-05-25T06:49:25;100851.34;;;11.87;93.54
59877;BME280;45749;51.140;17.184;2023-05-25T06:51:51;100859.81;;;11.92;93.29
59877;BME280;45749;51.140;17.184;2023-05-25T06:54:16;100858.75;;;11.94;93.52
59877;BME280;45749;51.140;17.184;2023-05-25T06:56:43;100844.78;;;11.92;93.30
59877;BME280;45749;51.140;17.184;2023-05-25T06:59:08;100853.97;;;12.00;93.86
59877;BME280;45749;51.140;17.184;2023-05-25T07:01:34;100855.25;;;12.07;93.69
59877;BME280;45749;51.140;17.184;2023-05-25T07:04:00;100847.09;;;12.10;93.62
59877;BME280;45749;51.140;17.184;2023-05-25T07:06:26;100848.47;;;12.15;93.57
59877;BME280;45749;51.140;17.184;2023-05-25T07:08:51;100855.34;;;12.18;93.61
59877;BME280;45749;51.140;17.184;2023-05-25T07:11:16;100852.47;;;12.21;93.55
59877;BME280;45749;51.140;17.184;2023-05-25T07:13:44;100851.19;;;12.27;93.72
59877;BME280;45749;51.140;17.184;2023-05-25T07:16:10;100844.81;;;12.29;93.60
59877;BME280;45749;51.140;17.184;2023-05-25T07:18:38;100832.88;;;12.24;93.48
59877;BME280;45749;51.140;17.184;2023-05-25T07:21:05;100850.53;;;12.36;93.59
59877;BME280;45749;51.140;17.184;2023-05-25T07:23:30;100833.59;;;12.38;93.96
59877;BME280;45749;51.140;17.184;2023-05-25T07:25:56;100845.31;;;12.47;93.59
59877;BME280;45749;51.140;17.184;2023-05-25T07:28:21;100842.34;;;12.52;93.40
59877;BME280;45749;51.140;17.184;2023-05-25T07:30:46;100849.09;;;12.56;93.33
59877;BME280;45749;51.140;17.184;2023-05-25T07:33:12;100851.28;;;12.62;93.45
59877;BME280;45749;51.140;17.184;2023-05-25T07:35:37;100847.34;;;12.67;93.42
59877;BME280;45749;51.140;17.184;2023-05-25T07:38:03;100846.41;;;12.68;93.64
59877;BME280;45749;51.140;17.184;2023-05-25T07:40:29;100860.56;;;12.80;93.51
59877;BME280;45749;51.140;17.184;2023-05-25T07:42:54;100858.00;;;12.79;92.73
59877;BME280;45749;51.140;17.184;2023-05-25T07:45:20;100862.00;;;12.84;93.01
59877;BME280;45749;51.140;17.184;2023-05-25T07:47:46;100864.31;;;12.89;92.97
59877;BME280;45749;51.140;17.184;2023-05-25T07:50:13;100854.31;;;12.93;92.63
59877;BME280;45749;51.140;17.184;2023-05-25T07:52:38;100854.84;;;12.98;92.71
59877;BME280;45749;51.140;17.184;2023-05-25T07:55:07;100862.44;;;13.02;92.78
59877;BME280;45749;51.140;17.184;2023-05-25T07:57:33;100862.94;;;13.07;92.60
59877;BME280;45749;51.140;17.184;2023-05-25T07:59:58;100865.16;;;13.13;92.70
59877;BME280;45749;51.140;17.184;2023-05-25T08:02:23;100869.34;;;13.16;92.34
59877;BME280;45749;51.140;17.184;2023-05-25T08:04:49;100868.19;;;13.20;92.16
59877;BME280;45749;51.140;17.184;2023-05-25T08:07:14;100873.91;;;13.27;92.75
59877;BME280;45749;51.140;17.184;2023-05-25T08:09:39;100877.03;;;13.32;92.94
59877;BME280;45749;51.140;17.184;2023-05-25T08:12:05;100872.84;;;13.41;92.94
59877;BME280;45749;51.140;17.184;2023-05-25T08:14:30;100863.84;;;13.43;92.77
59877;BME280;45749;51.140;17.184;2023-05-25T08:16:55;100873.00;;;13.50;91.83
59877;BME280;45749;51.140;17.184;2023-05-25T08:19:21;100870.97;;;13.54;91.87
59877;BME280;45749;51.140;17.184;2023-05-25T08:21:46;100872.41;;;13.58;91.99
59877;BME280;45749;51.140;17.184;2023-05-25T08:24:11;100879.28;;;13.60;91.76
59877;BME280;45749;51.140;17.184;2023-05-25T08:26:37;100873.84;;;13.62;91.59
59877;BME280;45749;51.140;17.184;2023-05-25T08:29:02;100877.25;;;13.64;91.03
59877;BME280;45749;51.140;17.184;2023-05-25T08:31:30;100858.22;;;13.59;91.21
59877;BME280;45749;51.140;17.184;2023-05-25T08:33:56;100874.13;;;13.70;91.40
59877;BME280;45749;51.140;17.184;2023-05-25T08:36:21;100867.50;;;13.76;91.59
59877;BME280;45749;51.140;17.184;2023-05-25T08:38:47;100870.63;;;13.81;91.43
59877;BME280;45749;51.140;17.184;2023-05-25T08:41:12;100871.00;;;13.88;91.52
59877;BME280;45749;51.140;17.184;2023-05-25T08:43:37;100866.91;;;13.95;91.36
59877;BME280;45749;51.140;17.184;2023-05-25T08:46:05;100867.78;;;13.95;90.53
59877;BME280;45749;51.140;17.184;2023-05-25T08:48:33;100870.28;;;13.97;90.12
59877;BME280;45749;51.140;17.184;2023-05-25T08:51:08;100871.97;;;13.98;90.63
59877;BME280;45749;51.140;17.184;2023-05-25T08:53:39;100883.94;;;14.03;90.94
59877;BME280;45749;51.140;17.184;2023-05-25T08:56:09;100881.78;;;14.08;90.42
59877;BME280;45749;51.140;17.184;2023-05-25T08:58:57;100878.97;;;14.10;90.37
59877;BME280;45749;51.140;17.184;2023-05-25T09:01:27;100883.44;;;14.10;90.51
59877;BME280;45749;51.140;17.184;2023-05-25T09:03:57;100885.63;;;14.16;90.22
59877;BME280;45749;51.140;17.184;2023-05-25T09:06:24;100880.06;;;14.19;90.36
59877;BME280;45749;51.140;17.184;2023-05-25T09:08:51;100886.59;;;14.26;90.48
59877;BME280;45749;51.140;17.184;2023-05-25T09:11:18;100887.78;;;14.33;90.05
59877;BME280;45749;51.140;17.184;2023-05-25T09:13:44;100893.44;;;14.40;90.27
59877;BME280;45749;51.140;17.184;2023-05-25T09:16:10;100877.03;;;14.46;90.51
59877;BME280;45749;51.140;17.184;2023-05-25T09:18:35;100888.50;;;14.58;90.23
59877;BME280;45749;51.140;17.184;2023-05-25T09:21:00;100895.97;;;14.64;89.64
59877;BME280;45749;51.140;17.184;2023-05-25T09:23:27;100880.63;;;14.67;90.00
59877;BME280;45749;51.140;17.184;2023-05-25T09:25:52;100886.19;;;14.75;89.45
59877;BME280;45749;51.140;17.184;2023-05-25T09:28:18;100888.19;;;14.83;89.28
59877;BME280;45749;51.140;17.184;2023-05-25T09:30:44;100891.34;;;14.88;88.69
59877;BME280;45749;51.140;17.184;2023-05-25T09:33:11;100879.47;;;14.92;88.98
59877;BME280;45749;51.140;17.184;2023-05-25T09:35:37;100875.22;;;15.01;88.80
59877;BME280;45749;51.140;17.184;2023-05-25T09:38:02;100879.19;;;15.07;88.71
59877;BME280;45749;51.140;17.184;2023-05-25T09:40:27;100879.41;;;15.15;88.56
59877;BME280;45749;51.140;17.184;2023-05-25T09:42:52;100875.00;;;15.25;88.74
59877;BME280;45749;51.140;17.184;2023-05-25T09:45:18;100876.16;;;15.32;88.15
59877;BME280;45749;51.140;17.184;2023-05-25T09:47:43;100883.50;;;15.40;87.55
59877;BME280;45749;51.140;17.184;2023-05-25T09:50:10;100880.31;;;15.46;87.72
59877;BME280;45749;51.140;17.184;2023-05-25T09:52:35;100878.97;;;15.52;87.55
59877;BME280;45749;51.140;17.184;2023-05-25T09:55:01;100880.97;;;15.59;87.00
59877;BME280;45749;51.140;17.184;2023-05-25T09:57:26;100878.41;;;15.69;87.54
59877;BME280;45749;51.140;17.184;2023-05-25T09:59:52;100873.28;;;15.77;86.46
59877;BME280;45749;51.140;17.184;2023-05-25T10:02:18;100876.56;;;15.90;86.44
59877;BME280;45749;51.140;17.184;2023-05-25T10:04:43;100880.13;;;16.01;85.90
59877;BME280;45749;51.140;17.184;2023-05-25T10:07:08;100868.22;;;16.05;86.52
59877;BME280;45749;51.140;17.184;2023-05-25T10:09:39;100871.66;;;16.16;84.58
59877;BME280;45749;51.140;17.184;2023-05-25T10:12:07;100883.88;;;16.19;85.06
59877;BME280;45749;51.140;17.184;2023-05-25T10:14:36;100882.34;;;16.26;85.47
59877;BME280;45749;51.140;17.184;2023-05-25T10:17:04;100877.75;;;16.38;85.64
59877;BME280;45749;51.140;17.184;2023-05-25T10:19:35;100878.88;;;16.45;85.68
59877;BME280;45749;51.140;17.184;2023-05-25T10:22:03;100877.38;;;16.52;85.48
59877;BME280;45749;51.140;17.184;2023-05-25T10:24:47;100883.00;;;16.59;83.61
59877;BME280;45749;51.140;17.184;2023-05-25T10:27:18;100884.69;;;16.60;83.51
59877;BME280;45749;51.140;17.184;2023-05-25T10:29:47;100878.63;;;16.58;82.79
59877;BME280;45749;51.140;17.184;2023-05-25T10:32:15;100881.28;;;16.58;83.82
59877;BME280;45749;51.140;17.184;2023-05-25T10:34:41;100886.91;;;16.64;84.42
59877;BME280;45749;51.140;17.184;2023-05-25T10:37:07;100843.13;;;16.48;84.17
59877;BME280;45749;51.140;17.184;2023-05-25T10:39:35;100877.75;;;16.78;83.90
59877;BME280;45749;51.140;17.184;2023-05-25T10:42:01;100878.72;;;16.87;82.79
59877;BME280;45749;51.140;17.184;2023-05-25T10:44:28;100880.44;;;16.88;83.42
59877;BME280;45749;51.140;17.184;2023-05-25T10:46:53;100876.34;;;16.94;83.43
59877;BME280;45749;51.140;17.184;2023-05-25T10:49:31;100880.13;;;17.01;83.33
59877;BME280;45749;51.140;17.184;2023-05-25T10:52:00;100875.94;;;17.08;82.43
59877;BME280;45749;51.140;17.184;2023-05-25T10:54:28;100875.66;;;17.11;81.85
59877;BME280;45749;51.140;17.184;2023-05-25T10:57:11;100860.34;;;17.13;82.28
59877;BME280;45749;51.140;17.184;2023-05-25T10:59:42;100865.84;;;17.21;82.08
59877;BME280;45749;51.140;17.184;2023-05-25T11:02:10;100862.47;;;17.19;81.62
59877;BME280;45749;51.140;17.184;2023-05-25T11:04:36;100861.63;;;17.28;82.11
59877;BME280;45749;51.140;17.184;2023-05-25T11:09:28;100861.16;;;17.43;81.89
59877;BME280;45749;51.140;17.184;2023-05-25T11:14:27;100859.75;;;17.48;80.06
59877;BME280;45749;51.140;17.184;2023-05-25T11:17:21;100860.44;;;17.50;80.53
59877;BME280;45749;51.140;17.184;2023-05-25T11:19:53;100851.59;;;17.50;80.50
59877;BME280;45749;51.140;17.184;2023-05-25T11:22:33;100850.75;;;17.59;80.02
59877;BME280;45749;51.140;17.184;2023-05-25T11:25:34;100848.09;;;17.59;80.87
59877;BME280;45749;51.140;17.184;2023-05-25T11:28:06;100847.78;;;17.62;80.48
59877;BME280;45749;51.140;17.184;2023-05-25T11:30:33;100848.88;;;17.69;80.41
59877;BME280;45749;51.140;17.184;2023-05-25T11:33:02;100852.69;;;17.76;80.14
59877;BME280;45749;51.140;17.184;2023-05-25T11:35:29;100855.22;;;17.78;79.38
59877;BME280;45749;51.140;17.184;2023-05-25T11:37:58;100847.59;;;17.73;79.61
59877;BME280;45749;51.140;17.184;2023-05-25T11:40:24;100846.47;;;17.76;79.07
59877;BME280;45749;51.140;17.184;2023-05-25T11:42:51;100850.72;;;17.78;79.52
59877;BME280;45749;51.140;17.184;2023-05-25T11:45:16;100844.81;;;17.85;79.67
59877;BME280;45749;51.140;17.184;2023-05-25T11:47:42;100844.53;;;17.88;79.27
59877;BME280;45749;51.140;17.184;2023-05-25T11:50:14;100837.78;;;17.93;79.98
59877;BME280;45749;51.140;17.184;2023-05-25T11:52:40;100834.91;;;18.04;79.31
59877;BME280;45749;51.140;17.184;2023-05-25T11:55:14;100837.66;;;18.13;78.98
59877;BME280;45749;51.140;17.184;2023-05-25T11:57:40;100838.19;;;18.16;79.06
59877;BME280;45749;51.140;17.184;2023-05-25T12:00:06;100838.91;;;18.18;78.37
59877;BME280;45749;51.140;17.184;2023-05-25T12:02:39;100830.75;;;18.20;77.76
59877;BME280;45749;51.140;17.184;2023-05-25T12:05:06;100834.94;;;18.22;78.05
59877;BME280;45749;51.140;17.184;2023-05-25T12:07:31;100832.13;;;18.24;77.53
59877;BME280;45749;51.140;17.184;2023-05-25T12:10:07;100840.28;;;18.22;77.94
59877;BME280;45749;51.140;17.184;2023-05-25T12:12:44;100833.25;;;18.21;77.39
59877;BME280;45749;51.140;17.184;2023-05-25T12:15:14;100837.06;;;18.19;77.91
59877;BME280;45749;51.140;17.184;2023-05-25T12:17:41;100838.91;;;18.18;77.05
59877;BME280;45749;51.140;17.184;2023-05-25T12:20:11;100836.94;;;18.20;76.78
59877;BME280;45749;51.140;17.184;2023-05-25T12:22:38;100829.59;;;18.22;77.04
59877;BME280;45749;51.140;17.184;2023-05-25T12:25:05;100825.66;;;18.26;77.37
59877;BME280;45749;51.140;17.184;2023-05-25T12:27:31;100822.78;;;18.38;77.03
59877;BME280;45749;51.140;17.184;2023-05-25T12:29:57;100811.19;;;18.47;77.70
59877;BME280;45749;51.140;17.184;2023-05-25T12:32:23;100823.41;;;18.67;77.41
59877;BME280;45749;51.140;17.184;2023-05-25T12:34:48;100814.66;;;18.75;76.41
59877;BME280;45749;51.140;17.184;2023-05-25T12:37:20;100806.50;;;18.77;76.57
59877;BME280;45749;51.140;17.184;2023-05-25T12:39:47;100809.47;;;18.73;75.51
59877;BME280;45749;51.140;17.184;2023-05-25T12:42:14;100818.03;;;18.77;76.27
59877;BME280;45749;51.140;17.184;2023-05-25T12:44:40;100811.03;;;18.76;76.35
59877;BME280;45749;51.140;17.184;2023-05-25T12:47:18;100809.47;;;18.73;76.07
59877;BME280;45749;51.140;17.184;2023-05-25T12:49:47;100811.06;;;18.66;76.06